sensor_id;sensor_type;location;lat;lon;timestamp;P1;durP1;ratioP1;P2;durP2;ratioP2
3155;SDS011;1588;50.892;7.082;2023-08-08T00:04:49;3.07;;;1.90;;
3155;SDS011;1588;50.892;7.082;2023-08-08T00:09:53;3.20;;;1.80;;
3155;SDS011;1588;50.892;7.082;2023-08-08T00:14:56;1.67;;;1.53;;
3155;SDS011;1588;50.892;7.082;2023-08-08T00:19:58;7.90;;;2.10;;
3155;SDS011;1588;50.892;7.082;2023-08-08T00:25:02;2.63;;;2.20;;
3155;SDS011;1588;50.892;7.082;2023-08-08T00:30:06;4.00;;;2.20;;
3155;SDS011;1588;50.892;7.082;2023-08-08T00:35:09;2.27;;;2.07;;
3155;SDS011;1588;50.892;7.082;2023-08-08T00:40:13;4.60;;;2.20;;
3155;SDS011;1588;50.892;7.082;2023-08-08T00:45:15;2.87;;;2.13;;
3155;SDS011;1588;50.892;7.082;2023-08-08T00:50:17;7.00;;;2.47;;
3155;SDS011;1588;50.892;7.082;2023-08-08T00:55:21;3.47;;;2.67;;
3155;SDS011;1588;50.892;7.082;2023-08-08T01:00:24;3.50;;;2.40;;
3155;SDS011;1588;50.892;7.082;2023-08-08T01:05:26;4.80;;;2.27;;
3155;SDS011;1588;50.892;7.082;2023-08-08T01:10:41;5.70;;;2.10;;
3155;SDS011;1588;50.892;7.082;2023-08-08T01:15:43;9.13;;;2.53;;
3155;SDS011;1588;50.892;7.082;2023-08-08T01:20:48;4.90;;;2.30;;
3155;SDS011;1588;50.892;7.082;2023-08-08T01:25:53;4.97;;;2.70;;
3155;SDS011;1588;50.892;7.082;2023-08-08T01:30:57;15.93;;;2.43;;
3155;SDS011;1588;50.892;7.082;2023-08-08T01:36:00;9.30;;;2.60;;
3155;SDS011;1588;50.892;7.082;2023-08-08T01:41:08;3.43;;;2.70;;
3155;SDS011;1588;50.892;7.082;2023-08-08T01:46:10;2.90;;;2.30;;
3155;SDS011;1588;50.892;7.082;2023-08-08T01:51:13;2.97;;;2.40;;
3155;SDS011;1588;50.892;7.082;2023-08-08T01:56:16;3.50;;;2.37;;
3155;SDS011;1588;50.892;7.082;2023-08-08T02:01:19;3.07;;;2.27;;
3155;SDS011;1588;50.892;7.082;2023-08-08T02:06:21;3.30;;;2.13;;
3155;SDS011;1588;50.892;7.082;2023-08-08T02:11:25;6.67;;;2.77;;
3155;SDS011;1588;50.892;7.082;2023-08-08T02:16:27;4.80;;;2.80;;
3155;SDS011;1588;50.892;7.082;2023-08-08T02:21:29;4.70;;;2.70;;
3155;SDS011;1588;50.892;7.082;2023-08-08T02:26:34;3.63;;;2.60;;
3155;SDS011;1588;50.892;7.082;2023-08-08T02:31:37;10.33;;;2.80;;
3155;SDS011;1588;50.892;7.082;2023-08-08T02:36:39;4.03;;;2.90;;
3155;SDS011;1588;50.892;7.082;2023-08-08T02:41:43;3.63;;;2.50;;
3155;SDS011;1588;50.892;7.082;2023-08-08T02:46:47;4.70;;;2.77;;
3155;SDS011;1588;50.892;7.082;2023-08-08T02:51:50;5.90;;;2.73;;
3155;SDS011;1588;50.892;7.082;2023-08-08T02:56:54;2.97;;;2.50;;
3155;SDS011;1588;50.892;7.082;2023-08-08T03:01:56;3.40;;;3.00;;
3155;SDS011;1588;50.892;7.082;2023-08-08T03:06:58;4.30;;;2.90;;
3155;SDS011;1588;50.892;7.082;2023-08-08T03:12:04;5.47;;;3.10;;
3155;SDS011;1588;50.892;7.082;2023-08-08T03:17:07;12.03;;;3.30;;
3155;SDS011;1588;50.892;7.082;2023-08-08T03:22:09;4.07;;;3.13;;
3155;SDS011;1588;50.892;7.082;2023-08-08T03:27:13;3.83;;;3.00;;
3155;SDS011;1588;50.892;7.082;2023-08-08T03:32:16;10.50;;;3.43;;
3155;SDS011;1588;50.892;7.082;2023-08-08T03:37:27;3.57;;;2.63;;
3155;SDS011;1588;50.892;7.082;2023-08-08T03:42:32;6.67;;;3.20;;
3155;SDS011;1588;50.892;7.082;2023-08-08T03:47:38;8.50;;;3.00;;
3155;SDS011;1588;50.892;7.082;2023-08-08T03:52:45;12.17;;;3.40;;
3155;SDS011;1588;50.892;7.082;2023-08-08T03:57:53;6.47;;;3.03;;
3155;SDS011;1588;50.892;7.082;2023-08-08T04:02:56;3.87;;;2.93;;
3155;SDS011;1588;50.892;7.082;2023-08-08T04:07:59;6.63;;;3.20;;
3155;SDS011;1588;50.892;7.082;2023-08-08T04:13:02;2.87;;;2.60;;
3155;SDS011;1588;50.892;7.082;2023-08-08T04:18:05;4.00;;;3.10;;
3155;SDS011;1588;50.892;7.082;2023-08-08T04:23:07;11.13;;;3.43;;
3155;SDS011;1588;50.892;7.082;2023-08-08T04:28:11;6.27;;;3.57;;
3155;SDS011;1588;50.892;7.082;2023-08-08T04:33:13;4.90;;;3.40;;
3155;SDS011;1588;50.892;7.082;2023-08-08T04:38:16;5.00;;;3.57;;
3155;SDS011;1588;50.892;7.082;2023-08-08T04:43:19;5.60;;;2.70;;
3155;SDS011;1588;50.892;7.082;2023-08-08T04:48:22;8.70;;;3.50;;
3155;SDS011;1588;50.892;7.082;2023-08-08T04:53:34;4.53;;;2.93;;
3155;SDS011;1588;50.892;7.082;2023-08-08T04:58:37;3.67;;;2.97;;
3155;SDS011;1588;50.892;7.082;2023-08-08T05:03:40;5.17;;;2.60;;
3155;SDS011;1588;50.892;7.082;2023-08-08T05:08:42;5.00;;;2.57;;
3155;SDS011;1588;50.892;7.082;2023-08-08T05:13:46;4.83;;;3.00;;
3155;SDS011;1588;50.892;7.082;2023-08-08T05:18:48;5.03;;;2.97;;
3155;SDS011;1588;50.892;7.082;2023-08-08T05:23:51;11.80;;;3.67;;
3155;SDS011;1588;50.892;7.082;2023-08-08T05:28:54;5.63;;;3.40;;
3155;SDS011;1588;50.892;7.082;2023-08-08T05:33:57;4.83;;;3.20;;
3155;SDS011;1588;50.892;7.082;2023-08-08T05:38:59;5.80;;;2.80;;
3155;SDS011;1588;50.892;7.082;2023-08-08T05:44:03;5.70;;;3.37;;
3155;SDS011;1588;50.892;7.082;2023-08-08T05:49:05;5.23;;;3.13;;
3155;SDS011;1588;50.892;7.082;2023-08-08T05:54:08;6.17;;;3.70;;
3155;SDS011;1588;50.892;7.082;2023-08-08T05:59:13;5.47;;;3.50;;
3155;SDS011;1588;50.892;7.082;2023-08-08T06:04:15;6.90;;;3.77;;
3155;SDS011;1588;50.892;7.082;2023-08-08T06:09:18;11.03;;;3.80;;
3155;SDS011;1588;50.892;7.082;2023-08-08T06:14:23;18.97;;;5.20;;
3155;SDS011;1588;50.892;7.082;2023-08-08T06:19:25;15.20;;;5.03;;
3155;SDS011;1588;50.892;7.082;2023-08-08T06:24:27;9.60;;;5.17;;
3155;SDS011;1588;50.892;7.082;2023-08-08T06:29:32;10.43;;;4.53;;
3155;SDS011;1588;50.892;7.082;2023-08-08T06:34:35;15.83;;;5.80;;
3155;SDS011;1588;50.892;7.082;2023-08-08T06:39:37;5.23;;;4.00;;
3155;SDS011;1588;50.892;7.082;2023-08-08T06:44:42;10.27;;;3.97;;
3155;SDS011;1588;50.892;7.082;2023-08-08T06:49:45;4.50;;;3.30;;
3155;SDS011;1588;50.892;7.082;2023-08-08T06:54:50;15.10;;;3.90;;
3155;SDS011;1588;50.892;7.082;2023-08-08T06:59:53;4.97;;;3.30;;
3155;SDS011;1588;50.892;7.082;2023-08-08T07:04:56;9.37;;;3.50;;
3155;SDS011;1588;50.892;7.082;2023-08-08T07:10:10;6.77;;;2.93;;
3155;SDS011;1588;50.892;7.082;2023-08-08T07:15:23;4.87;;;3.00;;
3155;SDS011;1588;50.892;7.082;2023-08-08T07:20:27;8.37;;;3.47;;
3155;SDS011;1588;50.892;7.082;2023-08-08T07:25:30;12.57;;;3.53;;
3155;SDS011;1588;50.892;7.082;2023-08-08T07:30:35;6.37;;;3.13;;
3155;SDS011;1588;50.892;7.082;2023-08-08T07:35:39;9.17;;;2.97;;
3155;SDS011;1588;50.892;7.082;2023-08-08T07:40:42;14.10;;;3.17;;
3155;SDS011;1588;50.892;7.082;2023-08-08T07:45:50;5.33;;;3.27;;
3155;SDS011;1588;50.892;7.082;2023-08-08T07:51:02;8.00;;;3.70;;
3155;SDS011;1588;50.892;7.082;2023-08-08T07:56:10;8.83;;;4.10;;
3155;SDS011;1588;50.892;7.082;2023-08-08T08:01:14;6.97;;;3.43;;
3155;SDS011;1588;50.892;7.082;2023-08-08T08:06:20;15.67;;;3.47;;
3155;SDS011;1588;50.892;7.082;2023-08-08T08:11:23;10.23;;;3.87;;
3155;SDS011;1588;50.892;7.082;2023-08-08T08:16:27;10.27;;;3.67;;
3155;SDS011;1588;50.892;7.082;2023-08-08T08:21:29;14.30;;;3.40;;
3155;SDS011;1588;50.892;7.082;2023-08-08T08:26:32;8.00;;;4.13;;
3155;SDS011;1588;50.892;7.082;2023-08-08T08:31:37;11.43;;;4.13;;
3155;SDS011;1588;50.892;7.082;2023-08-08T08:36:43;9.43;;;3.57;;
3155;SDS011;1588;50.892;7.082;2023-08-08T08:41:47;7.40;;;3.90;;
3155;SDS011;1588;50.892;7.082;2023-08-08T08:46:55;7.13;;;3.67;;
3155;SDS011;1588;50.892;7.082;2023-08-08T08:52:01;5.60;;;3.60;;
3155;SDS011;1588;50.892;7.082;2023-08-08T08:57:05;7.77;;;3.40;;
3155;SDS011;1588;50.892;7.082;2023-08-08T09:02:12;9.67;;;4.00;;
3155;SDS011;1588;50.892;7.082;2023-08-08T09:07:19;9.33;;;4.20;;
3155;SDS011;1588;50.892;7.082;2023-08-08T09:12:27;6.83;;;3.57;;
3155;SDS011;1588;50.892;7.082;2023-08-08T09:17:45;7.43;;;3.80;;
3155;SDS011;1588;50.892;7.082;2023-08-08T09:22:54;7.20;;;3.90;;
3155;SDS011;1588;50.892;7.082;2023-08-08T09:28:27;6.30;;;3.30;;
3155;SDS011;1588;50.892;7.082;2023-08-08T09:33:37;5.93;;;3.57;;
3155;SDS011;1588;50.892;7.082;2023-08-08T09:38:49;11.33;;;4.17;;
3155;SDS011;1588;50.892;7.082;2023-08-08T09:44:04;11.50;;;3.53;;
3155;SDS011;1588;50.892;7.082;2023-08-08T09:49:21;3.80;;;2.90;;
3155;SDS011;1588;50.892;7.082;2023-08-08T09:54:41;14.87;;;3.20;;
3155;SDS011;1588;50.892;7.082;2023-08-08T09:59:49;6.07;;;3.10;;
3155;SDS011;1588;50.892;7.082;2023-08-08T10:04:56;5.67;;;2.60;;
3155;SDS011;1588;50.892;7.082;2023-08-08T10:10:01;9.47;;;2.63;;
3155;SDS011;1588;50.892;7.082;2023-08-08T10:15:35;8.93;;;2.90;;
3155;SDS011;1588;50.892;7.082;2023-08-08T10:20:56;6.00;;;2.97;;
3155;SDS011;1588;50.892;7.082;2023-08-08T10:25:59;3.47;;;2.60;;
3155;SDS011;1588;50.892;7.082;2023-08-08T10:31:24;5.33;;;2.73;;
3155;SDS011;1588;50.892;7.082;2023-08-08T10:36:54;10.00;;;2.93;;
3155;SDS011;1588;50.892;7.082;2023-08-08T10:42:23;9.53;;;2.80;;
3155;SDS011;1588;50.892;7.082;2023-08-08T10:47:30;5.70;;;2.63;;
3155;SDS011;1588;50.892;7.082;2023-08-08T10:52:49;5.90;;;2.20;;
3155;SDS011;1588;50.892;7.082;2023-08-08T10:57:54;4.43;;;2.10;;
3155;SDS011;1588;50.892;7.082;2023-08-08T11:02:59;7.20;;;2.37;;
3155;SDS011;1588;50.892;7.082;2023-08-08T11:08:07;4.07;;;2.03;;
3155;SDS011;1588;50.892;7.082;2023-08-08T11:13:10;7.10;;;1.97;;
3155;SDS011;1588;50.892;7.082;2023-08-08T11:18:17;5.23;;;2.43;;
3155;SDS011;1588;50.892;7.082;2023-08-08T11:28:48;19.00;;;2.70;;
3155;SDS011;1588;50.892;7.082;2023-08-08T11:33:56;10.03;;;2.40;;
3155;SDS011;1588;50.892;7.082;2023-08-08T11:39:03;9.53;;;2.23;;
3155;SDS011;1588;50.892;7.082;2023-08-08T11:44:08;11.07;;;2.80;;
3155;SDS011;1588;50.892;7.082;2023-08-08T11:49:13;9.03;;;1.80;;
3155;SDS011;1588;50.892;7.082;2023-08-08T11:54:18;12.40;;;2.03;;
3155;SDS011;1588;50.892;7.082;2023-08-08T11:59:21;5.53;;;1.43;;
3155;SDS011;1588;50.892;7.082;2023-08-08T12:04:27;5.97;;;2.03;;
3155;SDS011;1588;50.892;7.082;2023-08-08T12:09:32;4.20;;;2.03;;
3155;SDS011;1588;50.892;7.082;2023-08-08T12:14:41;4.20;;;1.83;;
3155;SDS011;1588;50.892;7.082;2023-08-08T12:20:06;3.00;;;2.47;;
3155;SDS011;1588;50.892;7.082;2023-08-08T12:31:36;4.30;;;1.60;;
3155;SDS011;1588;50.892;7.082;2023-08-08T12:36:39;4.67;;;1.67;;
3155;SDS011;1588;50.892;7.082;2023-08-08T12:44:31;3.40;;;1.90;;
3155;SDS011;1588;50.892;7.082;2023-08-08T12:48:02;7.50;;;2.10;;
3155;SDS011;1588;50.892;7.082;2023-08-08T12:53:05;3.43;;;1.77;;
3155;SDS011;1588;50.892;7.082;2023-08-08T12:58:12;2.60;;;1.60;;
3155;SDS011;1588;50.892;7.082;2023-08-08T13:03:19;6.70;;;1.67;;
3155;SDS011;1588;50.892;7.082;2023-08-08T13:08:22;9.10;;;1.57;;
3155;SDS011;1588;50.892;7.082;2023-08-08T13:13:25;3.03;;;1.77;;
3155;SDS011;1588;50.892;7.082;2023-08-08T13:18:29;2.40;;;1.73;;
3155;SDS011;1588;50.892;7.082;2023-08-08T13:23:32;3.23;;;1.60;;
3155;SDS011;1588;50.892;7.082;2023-08-08T13:28:51;7.13;;;1.70;;
3155;SDS011;1588;50.892;7.082;2023-08-08T13:34:44;9.93;;;2.30;;
3155;SDS011;1588;50.892;7.082;2023-08-08T13:39:48;4.93;;;1.37;;
3155;SDS011;1588;50.892;7.082;2023-08-08T13:44:51;2.60;;;1.70;;
3155;SDS011;1588;50.892;7.082;2023-08-08T13:49:55;3.13;;;1.80;;
3155;SDS011;1588;50.892;7.082;2023-08-08T13:55:08;9.67;;;2.07;;
3155;SDS011;1588;50.892;7.082;2023-08-08T14:00:15;10.10;;;1.70;;
3155;SDS011;1588;50.892;7.082;2023-08-08T14:05:19;4.17;;;1.80;;
3155;SDS011;1588;50.892;7.082;2023-08-08T14:10:22;2.20;;;1.53;;
3155;SDS011;1588;50.892;7.082;2023-08-08T14:15:25;3.63;;;1.70;;
3155;SDS011;1588;50.892;7.082;2023-08-08T14:20:29;3.40;;;1.87;;
3155;SDS011;1588;50.892;7.082;2023-08-08T14:25:35;2.77;;;1.67;;
3155;SDS011;1588;50.892;7.082;2023-08-08T14:30:39;2.47;;;1.67;;
3155;SDS011;1588;50.892;7.082;2023-08-08T14:35:43;4.93;;;1.80;;
3155;SDS011;1588;50.892;7.082;2023-08-08T14:40:47;7.60;;;1.83;;
3155;SDS011;1588;50.892;7.082;2023-08-08T14:45:52;7.37;;;2.20;;
3155;SDS011;1588;50.892;7.082;2023-08-08T14:50:59;3.13;;;1.80;;
3155;SDS011;1588;50.892;7.082;2023-08-08T14:56:02;16.00;;;2.40;;
3155;SDS011;1588;50.892;7.082;2023-08-08T15:01:05;11.27;;;2.23;;
3155;SDS011;1588;50.892;7.082;2023-08-08T15:06:10;3.47;;;1.83;;
3155;SDS011;1588;50.892;7.082;2023-08-08T15:11:14;6.43;;;2.17;;
3155;SDS011;1588;50.892;7.082;2023-08-08T15:16:17;8.97;;;2.10;;
3155;SDS011;1588;50.892;7.082;2023-08-08T15:21:21;11.20;;;2.60;;
3155;SDS011;1588;50.892;7.082;2023-08-08T15:26:32;5.40;;;1.97;;
3155;SDS011;1588;50.892;7.082;2023-08-08T15:31:55;4.37;;;2.00;;
3155;SDS011;1588;50.892;7.082;2023-08-08T15:37:31;5.47;;;2.37;;
3155;SDS011;1588;50.892;7.082;2023-08-08T15:42:39;16.67;;;2.07;;
3155;SDS011;1588;50.892;7.082;2023-08-08T16:09:03;4.73;;;1.77;;
3155;SDS011;1588;50.892;7.082;2023-08-08T16:28:09;6.57;;;2.00;;
3155;SDS011;1588;50.892;7.082;2023-08-08T16:33:13;5.30;;;1.93;;
3155;SDS011;1588;50.892;7.082;2023-08-08T16:38:16;11.93;;;1.80;;
3155;SDS011;1588;50.892;7.082;2023-08-08T16:43:27;9.77;;;2.00;;
3155;SDS011;1588;50.892;7.082;2023-08-08T16:48:36;3.47;;;1.90;;
3155;SDS011;1588;50.892;7.082;2023-08-08T16:53:40;5.53;;;1.80;;
3155;SDS011;1588;50.892;7.082;2023-08-08T16:58:45;3.90;;;1.80;;
3155;SDS011;1588;50.892;7.082;2023-08-08T17:03:58;5.77;;;2.03;;
3155;SDS011;1588;50.892;7.082;2023-08-08T17:09:02;15.43;;;2.20;;
3155;SDS011;1588;50.892;7.082;2023-08-08T17:14:07;6.03;;;1.83;;
3155;SDS011;1588;50.892;7.082;2023-08-08T17:19:10;8.80;;;2.83;;
3155;SDS011;1588;50.892;7.082;2023-08-08T17:24:13;4.97;;;2.10;;
3155;SDS011;1588;50.892;7.082;2023-08-08T17:29:20;2.63;;;1.70;;
3155;SDS011;1588;50.892;7.082;2023-08-08T17:34:23;7.90;;;1.70;;
3155;SDS011;1588;50.892;7.082;2023-08-08T17:39:26;6.47;;;2.27;;
3155;SDS011;1588;50.892;7.082;2023-08-08T17:44:30;6.90;;;1.90;;
3155;SDS011;1588;50.892;7.082;2023-08-08T17:49:32;3.10;;;1.90;;
3155;SDS011;1588;50.892;7.082;2023-08-08T17:54:35;7.87;;;2.30;;
3155;SDS011;1588;50.892;7.082;2023-08-08T17:59:42;2.63;;;1.80;;
3155;SDS011;1588;50.892;7.082;2023-08-08T18:04:45;11.13;;;2.20;;
3155;SDS011;1588;50.892;7.082;2023-08-08T18:09:47;3.97;;;2.03;;
3155;SDS011;1588;50.892;7.082;2023-08-08T18:14:52;4.87;;;1.90;;
3155;SDS011;1588;50.892;7.082;2023-08-08T18:19:56;3.20;;;1.70;;
3155;SDS011;1588;50.892;7.082;2023-08-08T18:24:59;5.80;;;2.10;;
3155;SDS011;1588;50.892;7.082;2023-08-08T18:30:06;3.00;;;1.90;;
3155;SDS011;1588;50.892;7.082;2023-08-08T18:35:11;2.90;;;2.03;;
3155;SDS011;1588;50.892;7.082;2023-08-08T18:40:13;2.43;;;1.63;;
3155;SDS011;1588;50.892;7.082;2023-08-08T18:45:22;3.40;;;1.87;;
3155;SDS011;1588;50.892;7.082;2023-08-08T18:50:33;3.97;;;2.50;;
3155;SDS011;1588;50.892;7.082;2023-08-08T18:55:36;2.43;;;1.53;;
3155;SDS011;1588;50.892;7.082;2023-08-08T19:00:39;1.70;;;1.60;;
3155;SDS011;1588;50.892;7.082;2023-08-08T19:05:42;2.47;;;1.60;;
3155;SDS011;1588;50.892;7.082;2023-08-08T19:10:45;2.80;;;1.40;;
3155;SDS011;1588;50.892;7.082;2023-08-08T19:15:49;5.10;;;1.57;;
3155;SDS011;1588;50.892;7.082;2023-08-08T19:20:56;3.57;;;1.87;;
3155;SDS011;1588;50.892;7.082;2023-08-08T19:26:04;6.90;;;2.03;;
3155;SDS011;1588;50.892;7.082;2023-08-08T19:31:17;4.87;;;2.40;;
3155;SDS011;1588;50.892;7.082;2023-08-08T19:36:26;10.97;;;1.53;;
3155;SDS011;1588;50.892;7.082;2023-08-08T19:41:32;3.43;;;1.53;;
3155;SDS011;1588;50.892;7.082;2023-08-08T19:46:41;7.60;;;1.93;;
3155;SDS011;1588;50.892;7.082;2023-08-08T19:51:45;4.97;;;2.20;;
3155;SDS011;1588;50.892;7.082;2023-08-08T19:56:52;3.47;;;1.47;;
3155;SDS011;1588;50.892;7.082;2023-08-08T20:02:06;1.90;;;1.50;;
3155;SDS011;1588;50.892;7.082;2023-08-08T20:07:15;3.23;;;1.50;;
3155;SDS011;1588;50.892;7.082;2023-08-08T20:12:27;4.13;;;2.17;;
3155;SDS011;1588;50.892;7.082;2023-08-08T20:17:31;3.60;;;1.80;;
3155;SDS011;1588;50.892;7.082;2023-08-08T20:22:43;8.73;;;2.63;;
3155;SDS011;1588;50.892;7.082;2023-08-08T20:27:51;2.10;;;1.70;;
3155;SDS011;1588;50.892;7.082;2023-08-08T20:32:58;2.40;;;1.70;;
3155;SDS011;1588;50.892;7.082;2023-08-08T20:38:06;7.70;;;2.93;;
3155;SDS011;1588;50.892;7.082;2023-08-08T20:43:24;5.03;;;2.40;;
3155;SDS011;1588;50.892;7.082;2023-08-08T20:48:30;8.53;;;2.50;;
3155;SDS011;1588;50.892;7.082;2023-08-08T20:53:36;10.23;;;2.20;;
3155;SDS011;1588;50.892;7.082;2023-08-08T20:58:45;4.17;;;1.93;;
3155;SDS011;1588;50.892;7.082;2023-08-08T21:03:55;3.10;;;2.17;;
3155;SDS011;1588;50.892;7.082;2023-08-08T21:09:10;3.43;;;1.97;;
3155;SDS011;1588;50.892;7.082;2023-08-08T21:14:31;5.50;;;2.53;;
3155;SDS011;1588;50.892;7.082;2023-08-08T21:19:40;6.13;;;2.90;;
3155;SDS011;1588;50.892;7.082;2023-08-08T21:24:46;8.20;;;2.27;;
3155;SDS011;1588;50.892;7.082;2023-08-08T21:29:49;4.43;;;2.60;;
3155;SDS011;1588;50.892;7.082;2023-08-08T21:34:53;5.20;;;2.83;;
3155;SDS011;1588;50.892;7.082;2023-08-08T21:39:56;4.57;;;2.60;;
3155;SDS011;1588;50.892;7.082;2023-08-08T21:44:58;3.40;;;2.67;;
3155;SDS011;1588;50.892;7.082;2023-08-08T21:50:03;5.63;;;3.10;;
3155;SDS011;1588;50.892;7.082;2023-08-08T21:55:07;4.27;;;3.17;;
3155;SDS011;1588;50.892;7.082;2023-08-08T22:00:10;4.40;;;3.37;;
3155;SDS011;1588;50.892;7.082;2023-08-08T22:05:16;8.03;;;4.50;;
3155;SDS011;1588;50.892;7.082;2023-08-08T22:10:21;6.80;;;4.10;;
3155;SDS011;1588;50.892;7.082;2023-08-08T22:15:26;5.63;;;4.33;;
3155;SDS011;1588;50.892;7.082;2023-08-08T22:20:30;9.93;;;5.30;;
3155;SDS011;1588;50.892;7.082;2023-08-08T22:25:33;10.83;;;5.33;;
3155;SDS011;1588;50.892;7.082;2023-08-08T22:30:36;9.57;;;5.73;;
3155;SDS011;1588;50.892;7.082;2023-08-08T22:35:40;9.00;;;6.00;;
3155;SDS011;1588;50.892;7.082;2023-08-08T22:40:43;10.30;;;5.30;;
3155;SDS011;1588;50.892;7.082;2023-08-08T22:45:45;6.20;;;4.47;;
3155;SDS011;1588;50.892;7.082;2023-08-08T22:50:49;6.30;;;3.80;;
3155;SDS011;1588;50.892;7.082;2023-08-08T22:55:52;5.80;;;3.73;;
3155;SDS011;1588;50.892;7.082;2023-08-08T23:00:54;5.47;;;3.40;;
3155;SDS011;1588;50.892;7.082;2023-08-08T23:05:58;6.10;;;3.77;;
3155;SDS011;1588;50.892;7.082;2023-08-08T23:11:01;6.20;;;3.97;;
3155;SDS011;1588;50.892;7.082;2023-08-08T23:16:03;4.57;;;3.07;;
3155;SDS011;1588;50.892;7.082;2023-08-08T23:21:07;9.43;;;2.90;;
3155;SDS011;1588;50.892;7.082;2023-08-08T23:26:10;5.30;;;3.03;;
3155;SDS011;1588;50.892;7.082;2023-08-08T23:31:13;3.73;;;2.50;;
3155;SDS011;1588;50.892;7.082;2023-08-08T23:36:21;9.10;;;4.47;;
3155;SDS011;1588;50.892;7.082;2023-08-08T23:41:25;4.10;;;2.60;;
3155;SDS011;1588;50.892;7.082;2023-08-08T23:46:27;5.50;;;3.10;;
3155;SDS011;1588;50.892;7.082;2023-08-08T23:51:31;12.90;;;3.27;;
3155;SDS011;1588;50.892;7.082;2023-08-08T23:56:33;8.27;;;3.50;;
